Portada
METAR-TAF:

METAR-TAF

Aeropuertos :

Aeropuerto de Maribor

Maribor, Eslovenia

latitud: 46-29N, longitud: 015-41E, altitud: 264 m

Observación

El informe se hizo hace 34 minutos, a las 03:00 UTC
Viento 3 kt del sur
Temperatura 12°C
Humedad 88%
Presión 1017 hPa
Visibilidad 10 km o más

METAR: LJMB 010300Z AUTO 18003KT 9999 OVC036/// 12/10 Q1017

Hora: 05:34 (03:34 UTC)

Pronóstico

El informe se hizo hace 4 horas y 34 minutos, a las 23:00 UTC
Pronóstico válido del 01 a las 00 UTC al 01 a las 24 UTC
Viento 5 kt del norte-noreste
Visibilidad 10 km o más
Cielo nuboso a una altura de 4000 ft
Temporalmente
del 01 a las 00 UTC al 01 a las 03 UTC
lluvia ligera
Temporalmente
del 01 a las 06 UTC al 01 a las 15 UTC
Viento 15 kt del norte-noreste con ráfagas de 25 kt

TAF: LJMB 312300Z 0100/0124 02005KT 9999 BKN040 TEMPO 0100/0103 -RA TEMPO 0106/0115 02015G25KT

Observaciones y pronósticos meteorológicos de más de 4000 aeropuertos (mensajes METAR y TAF).

Los puntos amarillos y rojos representan las estaciones disponibles.

Ponga el ratón en el punto deseado para ver el nombre de la estación.

Haga clic para ver las observaciones y los pronósticos meteorológicos.

Para cambiar el mapa : haga clic en los botones verdes con una cruz de color negro para hacer un zoom, en el botón verde con un guión para alejar o en las flechas verdes para mapas adyacentes.


METAR-TAF: